sensor_id;sensor_type;location;lat;lon;timestamp;noise_LAeq;noise_LA_min;noise_LA_max;noise_LA01;noise_LA95
78273;Laerm;67530;52.282;5.972;2023-04-25T00:00:06;51.6;48.6;52.7;;
78273;Laerm;67530;52.282;5.972;2023-04-25T00:00:26;51.7;49.5;52.9;;
78273;Laerm;67530;52.282;5.972;2023-04-25T00:00:46;51.8;49.1;52.9;;
78273;Laerm;67530;52.282;5.972;2023-04-25T00:01:06;51.9;49.1;52.9;;
78273;Laerm;67530;52.282;5.972;2023-04-25T00:01:26;51.9;48.3;53.1;;
78273;Laerm;67530;52.282;5.972;2023-04-25T00:01:46;51.8;48.9;53;;
78273;Laerm;67530;52.282;5.972;2023-04-25T00:02:06;51.8;48.8;52.8;;
78273;Laerm;67530;52.282;5.972;2023-04-25T00:02:26;51.7;49.2;52.8;;
78273;Laerm;67530;52.282;5.972;2023-04-25T00:02:46;51.7;48.7;53;;
78273;Laerm;67530;52.282;5.972;2023-04-25T00:03:07;51.8;49.3;52.8;;
78273;Laerm;67530;52.282;5.972;2023-04-25T00:03:27;51.7;48.7;53;;
78273;Laerm;67530;52.282;5.972;2023-04-25T00:03:47;51.8;49;52.9;;
78273;Laerm;67530;52.282;5.972;2023-04-25T00:04:07;51.8;48.3;53;;
78273;Laerm;67530;52.282;5.972;2023-04-25T00:04:27;51.8;48.5;52.9;;
78273;Laerm;67530;52.282;5.972;2023-04-25T00:04:47;51.8;49.3;53;;
78273;Laerm;67530;52.282;5.972;2023-04-25T00:05:07;51.9;48.8;53;;
78273;Laerm;67530;52.282;5.972;2023-04-25T00:05:27;52;48.4;53.1;;
78273;Laerm;67530;52.282;5.972;2023-04-25T00:05:47;51.9;49.2;53;;
78273;Laerm;67530;52.282;5.972;2023-04-25T00:06:07;51.9;49.1;53.1;;
78273;Laerm;67530;52.282;5.972;2023-04-25T00:06:27;52;48.3;53.2;;
78273;Laerm;67530;52.282;5.972;2023-04-25T00:06:47;52.2;49.3;54.1;;
78273;Laerm;67530;52.282;5.972;2023-04-25T00:07:07;52;50.2;53.1;;
78273;Laerm;67530;52.282;5.972;2023-04-25T00:07:27;51.9;48.4;53.3;;
78273;Laerm;67530;52.282;5.972;2023-04-25T00:07:47;51.9;49.2;53;;
78273;Laerm;67530;52.282;5.972;2023-04-25T00:08:07;51.8;49.2;52.9;;
78273;Laerm;67530;52.282;5.972;2023-04-25T00:08:28;51.9;49.8;53.2;;
78273;Laerm;67530;52.282;5.972;2023-04-25T00:08:47;51.8;48.3;53.1;;
78273;Laerm;67530;52.282;5.972;2023-04-25T00:09:08;52;49.3;53.2;;
78273;Laerm;67530;52.282;5.972;2023-04-25T00:09:28;52;49.9;53.1;;
78273;Laerm;67530;52.282;5.972;2023-04-25T00:09:48;52.1;49.5;53.1;;
78273;Laerm;67530;52.282;5.972;2023-04-25T00:10:08;52;48.1;53.1;;
78273;Laerm;67530;52.282;5.972;2023-04-25T00:10:28;51.9;49.6;53;;
78273;Laerm;67530;52.282;5.972;2023-04-25T00:10:48;51.9;48.5;53.2;;
78273;Laerm;67530;52.282;5.972;2023-04-25T00:11:08;52;49;53.2;;
78273;Laerm;67530;52.282;5.972;2023-04-25T00:11:28;51.9;48.3;53;;
78273;Laerm;67530;52.282;5.972;2023-04-25T00:11:48;52;47.9;53;;
78273;Laerm;67530;52.282;5.972;2023-04-25T00:12:08;51.7;47.8;53.3;;
78273;Laerm;67530;52.282;5.972;2023-04-25T00:12:28;51.9;48.9;53;;
78273;Laerm;67530;52.282;5.972;2023-04-25T00:12:48;52;49;53.1;;
78273;Laerm;67530;52.282;5.972;2023-04-25T00:13:08;52;48.7;53;;
78273;Laerm;67530;52.282;5.972;2023-04-25T00:13:28;52;48.4;53;;
78273;Laerm;67530;52.282;5.972;2023-04-25T00:13:48;52.1;50;53.3;;
78273;Laerm;67530;52.282;5.972;2023-04-25T00:14:08;52;48.8;53;;
78273;Laerm;67530;52.282;5.972;2023-04-25T00:14:29;52;48.9;53.2;;
78273;Laerm;67530;52.282;5.972;2023-04-25T00:14:49;52;49.3;53.1;;
78273;Laerm;67530;52.282;5.972;2023-04-25T00:15:09;52.1;49.4;53.3;;
78273;Laerm;67530;52.282;5.972;2023-04-25T00:15:29;52.1;49.2;53.1;;
78273;Laerm;67530;52.282;5.972;2023-04-25T00:15:49;52.1;49.8;53.5;;
78273;Laerm;67530;52.282;5.972;2023-04-25T00:16:09;51.3;47.9;53.1;;
78273;Laerm;67530;52.282;5.972;2023-04-25T00:16:29;52.1;49.4;53.1;;
78273;Laerm;67530;52.282;5.972;2023-04-25T00:16:49;52;48.8;53.1;;
78273;Laerm;67530;52.282;5.972;2023-04-25T00:17:09;52;48.9;53.2;;
78273;Laerm;67530;52.282;5.972;2023-04-25T00:17:29;52;49.6;53.1;;
78273;Laerm;67530;52.282;5.972;2023-04-25T00:17:49;52;49;53.2;;
78273;Laerm;67530;52.282;5.972;2023-04-25T00:18:09;52;49.6;53.2;;
78273;Laerm;67530;52.282;5.972;2023-04-25T00:18:29;52;49.5;53.3;;
78273;Laerm;67530;52.282;5.972;2023-04-25T00:18:49;52.2;49.6;53.2;;
78273;Laerm;67530;52.282;5.972;2023-04-25T00:19:09;52.3;50.1;53.5;;
78273;Laerm;67530;52.282;5.972;2023-04-25T00:19:29;52.4;49.6;53.5;;
78273;Laerm;67530;52.282;5.972;2023-04-25T00:19:50;52.4;49.7;53.8;;
78273;Laerm;67530;52.282;5.972;2023-04-25T00:20:10;52.5;50;53.7;;
78273;Laerm;67530;52.282;5.972;2023-04-25T00:20:30;52.5;49.6;53.6;;
78273;Laerm;67530;52.282;5.972;2023-04-25T00:20:50;52.4;49.5;53.5;;
78273;Laerm;67530;52.282;5.972;2023-04-25T00:21:10;52.3;50.3;53.5;;
78273;Laerm;67530;52.282;5.972;2023-04-25T00:21:30;52.4;50.1;53.5;;
78273;Laerm;67530;52.282;5.972;2023-04-25T00:21:50;52.4;49.9;53.6;;
78273;Laerm;67530;52.282;5.972;2023-04-25T00:22:10;52.3;49.6;53.6;;
78273;Laerm;67530;52.282;5.972;2023-04-25T00:22:30;52.2;49.2;53.5;;
78273;Laerm;67530;52.282;5.972;2023-04-25T00:22:50;52.4;49.2;53.6;;
78273;Laerm;67530;52.282;5.972;2023-04-25T00:23:10;52.3;49.5;53.5;;
78273;Laerm;67530;52.282;5.972;2023-04-25T00:23:30;52.4;49.5;53.5;;
78273;Laerm;67530;52.282;5.972;2023-04-25T00:23:51;52.6;50.6;54;;
78273;Laerm;67530;52.282;5.972;2023-04-25T00:24:11;52.5;49.2;53.8;;
78273;Laerm;67530;52.282;5.972;2023-04-25T00:24:30;52.5;48.8;53.8;;
78273;Laerm;67530;52.282;5.972;2023-04-25T00:24:50;52.5;50;53.7;;
78273;Laerm;67530;52.282;5.972;2023-04-25T00:25:10;52.4;49.1;53.8;;
78273;Laerm;67530;52.282;5.972;2023-04-25T00:25:31;52.5;49.4;53.6;;
78273;Laerm;67530;52.282;5.972;2023-04-25T00:25:51;52.5;49.3;53.6;;
78273;Laerm;67530;52.282;5.972;2023-04-25T00:26:11;52.5;49.6;53.8;;
78273;Laerm;67530;52.282;5.972;2023-04-25T00:26:31;52.4;49.7;53.6;;
78273;Laerm;67530;52.282;5.972;2023-04-25T00:26:51;52.5;49.6;53.6;;
78273;Laerm;67530;52.282;5.972;2023-04-25T00:27:11;52.4;48.7;53.5;;
78273;Laerm;67530;52.282;5.972;2023-04-25T00:27:31;52.5;49.2;53.6;;
78273;Laerm;67530;52.282;5.972;2023-04-25T00:27:51;52.3;49.8;53.4;;
78273;Laerm;67530;52.282;5.972;2023-04-25T00:28:11;52.4;49.3;53.5;;
78273;Laerm;67530;52.282;5.972;2023-04-25T00:28:31;52.4;50.1;53.5;;
78273;Laerm;67530;52.282;5.972;2023-04-25T00:28:51;52.3;49.8;53.6;;
78273;Laerm;67530;52.282;5.972;2023-04-25T00:29:11;52.3;49.7;53.6;;
78273;Laerm;67530;52.282;5.972;2023-04-25T00:29:31;52.2;49;53.3;;
78273;Laerm;67530;52.282;5.972;2023-04-25T00:29:51;52.1;49.2;53.3;;
78273;Laerm;67530;52.282;5.972;2023-04-25T00:30:12;52.2;49.5;53.3;;
78273;Laerm;67530;52.282;5.972;2023-04-25T00:30:31;51.9;48.9;53.4;;
78273;Laerm;67530;52.282;5.972;2023-04-25T00:30:51;52.2;49.6;53.4;;
78273;Laerm;67530;52.282;5.972;2023-04-25T00:31:12;52.2;49.2;53.3;;
78273;Laerm;67530;52.282;5.972;2023-04-25T00:31:32;52.3;49.4;53.3;;
78273;Laerm;67530;52.282;5.972;2023-04-25T00:31:52;52.4;49.3;53.8;;
78273;Laerm;67530;52.282;5.972;2023-04-25T00:32:12;52.3;49.1;53.5;;
78273;Laerm;67530;52.282;5.972;2023-04-25T00:32:32;52.6;49.9;53.6;;
78273;Laerm;67530;52.282;5.972;2023-04-25T00:32:52;52.6;49.6;53.8;;
78273;Laerm;67530;52.282;5.972;2023-04-25T00:33:12;52.6;49.8;53.8;;
78273;Laerm;67530;52.282;5.972;2023-04-25T00:33:32;52.4;49.9;53.7;;
78273;Laerm;67530;52.282;5.972;2023-04-25T00:33:52;52.5;50.1;53.7;;
78273;Laerm;67530;52.282;5.972;2023-04-25T00:34:12;52.5;49.7;53.8;;
78273;Laerm;67530;52.282;5.972;2023-04-25T00:34:32;52.5;49.1;53.8;;
78273;Laerm;67530;52.282;5.972;2023-04-25T00:34:52;52.4;50;53.6;;
78273;Laerm;67530;52.282;5.972;2023-04-25T00:35:12;52.5;49.7;53.8;;
78273;Laerm;67530;52.282;5.972;2023-04-25T00:35:32;52.7;50;54;;
78273;Laerm;67530;52.282;5.972;2023-04-25T00:35:52;52.6;49.8;53.8;;
78273;Laerm;67530;52.282;5.972;2023-04-25T00:36:12;52.8;49.9;53.9;;
78273;Laerm;67530;52.282;5.972;2023-04-25T00:36:32;52.7;50.2;53.9;;
78273;Laerm;67530;52.282;5.972;2023-04-25T00:36:53;52.6;50;53.9;;
78273;Laerm;67530;52.282;5.972;2023-04-25T00:37:13;52.6;49.3;53.9;;
78273;Laerm;67530;52.282;5.972;2023-04-25T00:37:33;52.9;50.6;53.9;;
78273;Laerm;67530;52.282;5.972;2023-04-25T00:37:53;52.8;49.7;53.9;;
78273;Laerm;67530;52.282;5.972;2023-04-25T00:38:13;52.6;49.1;53.7;;
78273;Laerm;67530;52.282;5.972;2023-04-25T00:38:33;52.5;50;53.9;;
78273;Laerm;67530;52.282;5.972;2023-04-25T00:38:53;52.6;50.3;53.7;;
78273;Laerm;67530;52.282;5.972;2023-04-25T00:39:13;52.6;48.9;53.9;;
78273;Laerm;67530;52.282;5.972;2023-04-25T00:39:33;52.6;49.2;53.8;;
78273;Laerm;67530;52.282;5.972;2023-04-25T00:39:53;52.5;50.2;53.5;;
78273;Laerm;67530;52.282;5.972;2023-04-25T00:40:13;51.8;48.2;53.1;;
78273;Laerm;67530;52.282;5.972;2023-04-25T00:40:33;52.4;50;53.7;;
78273;Laerm;67530;52.282;5.972;2023-04-25T00:40:53;52.4;49.8;53.5;;
78273;Laerm;67530;52.282;5.972;2023-04-25T00:41:13;52.3;49.6;53.4;;
78273;Laerm;67530;52.282;5.972;2023-04-25T00:41:33;52.3;49.1;53.5;;
78273;Laerm;67530;52.282;5.972;2023-04-25T00:41:54;52.1;49.4;53.4;;
78273;Laerm;67530;52.282;5.972;2023-04-25T00:42:13;52.1;49.2;53.4;;
78273;Laerm;67530;52.282;5.972;2023-04-25T00:42:34;52.2;49.6;53.7;;
78273;Laerm;67530;52.282;5.972;2023-04-25T00:42:54;52.2;49.8;53.4;;
78273;Laerm;67530;52.282;5.972;2023-04-25T00:43:14;52.2;49.2;53.4;;
78273;Laerm;67530;52.282;5.972;2023-04-25T00:43:34;52.2;49.8;53.3;;
78273;Laerm;67530;52.282;5.972;2023-04-25T00:43:54;51.9;48.8;53.8;;
78273;Laerm;67530;52.282;5.972;2023-04-25T00:44:14;52.2;49.2;53.6;;
78273;Laerm;67530;52.282;5.972;2023-04-25T00:44:34;52.3;50.1;53.5;;
78273;Laerm;67530;52.282;5.972;2023-04-25T00:44:54;52.2;50.1;53.6;;
78273;Laerm;67530;52.282;5.972;2023-04-25T00:45:14;52.3;49.1;53.4;;
78273;Laerm;67530;52.282;5.972;2023-04-25T00:45:34;52.2;49.2;53.3;;
78273;Laerm;67530;52.282;5.972;2023-04-25T00:45:54;52.2;49.3;53.3;;
78273;Laerm;67530;52.282;5.972;2023-04-25T00:46:14;52.1;49.1;53.3;;
78273;Laerm;67530;52.282;5.972;2023-04-25T00:46:34;52.1;48.9;53.2;;
78273;Laerm;67530;52.282;5.972;2023-04-25T00:46:54;52.2;48.6;53.4;;
78273;Laerm;67530;52.282;5.972;2023-04-25T00:47:15;52.1;48.4;53.3;;
78273;Laerm;67530;52.282;5.972;2023-04-25T00:47:35;52.3;49.8;53.5;;
78273;Laerm;67530;52.282;5.972;2023-04-25T00:47:55;52.4;49.4;53.5;;
78273;Laerm;67530;52.282;5.972;2023-04-25T00:48:15;52.4;49.4;53.6;;
78273;Laerm;67530;52.282;5.972;2023-04-25T00:48:35;52.4;49.9;53.5;;
78273;Laerm;67530;52.282;5.972;2023-04-25T00:48:55;52.4;49;53.5;;
78273;Laerm;67530;52.282;5.972;2023-04-25T00:49:15;52.2;49.7;53.4;;
78273;Laerm;67530;52.282;5.972;2023-04-25T00:49:35;52.3;49.9;53.6;;
78273;Laerm;67530;52.282;5.972;2023-04-25T00:49:55;52.2;49.6;53.4;;
78273;Laerm;67530;52.282;5.972;2023-04-25T00:50:15;52.3;49.5;53.4;;
78273;Laerm;67530;52.282;5.972;2023-04-25T00:50:35;52.2;49.2;53.4;;
78273;Laerm;67530;52.282;5.972;2023-04-25T00:50:56;52.1;48.7;53.3;;
78273;Laerm;67530;52.282;5.972;2023-04-25T00:51:15;52.1;49.1;53.1;;
78273;Laerm;67530;52.282;5.972;2023-04-25T00:51:35;52.1;48.9;53.2;;
78273;Laerm;67530;52.282;5.972;2023-04-25T00:51:56;52.1;49.2;53.1;;
78273;Laerm;67530;52.282;5.972;2023-04-25T00:52:15;52;48.8;53.2;;
78273;Laerm;67530;52.282;5.972;2023-04-25T00:52:36;52;49.4;53.9;;
78273;Laerm;67530;52.282;5.972;2023-04-25T00:52:55;52;49;53.2;;
78273;Laerm;67530;52.282;5.972;2023-04-25T00:53:15;51.7;48.5;53.4;;
78273;Laerm;67530;52.282;5.972;2023-04-25T00:53:36;52;49.5;53.1;;
78273;Laerm;67530;52.282;5.972;2023-04-25T00:53:56;51.7;47.8;53;;
78273;Laerm;67530;52.282;5.972;2023-04-25T00:54:16;51.8;48.9;53.2;;
78273;Laerm;67530;52.282;5.972;2023-04-25T00:54:36;52;48.9;53.2;;
78273;Laerm;67530;52.282;5.972;2023-04-25T00:54:56;51.8;48.2;53;;
78273;Laerm;67530;52.282;5.972;2023-04-25T00:55:16;51.9;48.2;53;;
78273;Laerm;67530;52.282;5.972;2023-04-25T00:55:36;51.8;49.4;52.9;;
78273;Laerm;67530;52.282;5.972;2023-04-25T00:55:56;51.9;49.8;53;;
78273;Laerm;67530;52.282;5.972;2023-04-25T00:56:16;52;48.1;53.3;;
78273;Laerm;67530;52.282;5.972;2023-04-25T00:56:36;52.2;48.9;53.1;;
78273;Laerm;67530;52.282;5.972;2023-04-25T00:56:56;52.1;49.1;53.3;;
78273;Laerm;67530;52.282;5.972;2023-04-25T00:57:16;52.1;48.5;53.2;;
78273;Laerm;67530;52.282;5.972;2023-04-25T00:57:36;52.1;48.8;53.1;;
78273;Laerm;67530;52.282;5.972;2023-04-25T00:57:56;52.1;49.8;53.2;;
78273;Laerm;67530;52.282;5.972;2023-04-25T00:58:16;52;49.5;53.2;;
78273;Laerm;67530;52.282;5.972;2023-04-25T00:58:36;52.1;49.6;53.5;;
78273;Laerm;67530;52.282;5.972;2023-04-25T00:58:56;52;49.3;53.1;;
78273;Laerm;67530;52.282;5.972;2023-04-25T00:59:17;52.1;48.7;53;;
78273;Laerm;67530;52.282;5.972;2023-04-25T00:59:37;52.1;49.9;53.3;;
78273;Laerm;67530;52.282;5.972;2023-04-25T00:59:57;52.1;48.8;53.3;;
78273;Laerm;67530;52.282;5.972;2023-04-25T01:00:17;52;49;53.2;;
78273;Laerm;67530;52.282;5.972;2023-04-25T01:00:37;52.1;49.1;53.1;;
78273;Laerm;67530;52.282;5.972;2023-04-25T01:00:57;52.2;50;53.2;;
78273;Laerm;67530;52.282;5.972;2023-04-25T01:01:17;52.1;49.4;53.2;;
78273;Laerm;67530;52.282;5.972;2023-04-25T01:01:37;51.7;46.9;53.1;;
78273;Laerm;67530;52.282;5.972;2023-04-25T01:01:57;52.1;49.1;53.4;;
78273;Laerm;67530;52.282;5.972;2023-04-25T01:02:37;52.1;49.3;53.2;;
78273;Laerm;67530;52.282;5.972;2023-04-25T01:02:57;52;48.8;53.2;;
78273;Laerm;67530;52.282;5.972;2023-04-25T01:03:17;52;49.6;53;;
78273;Laerm;67530;52.282;5.972;2023-04-25T01:03:38;51.5;48.3;53;;
78273;Laerm;67530;52.282;5.972;2023-04-25T01:03:58;51.8;48.7;53;;
78273;Laerm;67530;52.282;5.972;2023-04-25T01:04:17;51.8;48;53;;
78273;Laerm;67530;52.282;5.972;2023-04-25T01:04:38;51.9;49.6;53;;
78273;Laerm;67530;52.282;5.972;2023-04-25T01:04:58;51.7;48.9;52.9;;
78273;Laerm;67530;52.282;5.972;2023-04-25T01:05:18;51.7;48.9;52.7;;
78273;Laerm;67530;52.282;5.972;2023-04-25T01:05:38;51.7;48.1;52.8;;
78273;Laerm;67530;52.282;5.972;2023-04-25T01:06:18;51.6;48.7;53;;
78273;Laerm;67530;52.282;5.972;2023-04-25T01:06:38;51.5;48.3;52.7;;
78273;Laerm;67530;52.282;5.972;2023-04-25T01:06:58;51.7;48.2;52.7;;
78273;Laerm;67530;52.282;5.972;2023-04-25T01:07:18;51.5;47.2;52.7;;
78273;Laerm;67530;52.282;5.972;2023-04-25T01:07:38;51.4;47.9;52.6;;
78273;Laerm;67530;52.282;5.972;2023-04-25T01:07:58;51.3;48.1;52.4;;
78273;Laerm;67530;52.282;5.972;2023-04-25T01:08:18;51.3;48.4;52.3;;
78273;Laerm;67530;52.282;5.972;2023-04-25T01:08:38;51.5;47.9;52.7;;
78273;Laerm;67530;52.282;5.972;2023-04-25T01:08:58;51.4;47.3;52.5;;
78273;Laerm;67530;52.282;5.972;2023-04-25T01:09:18;51.4;48.1;52.6;;
78273;Laerm;67530;52.282;5.972;2023-04-25T01:09:38;50.8;48;52.3;;
78273;Laerm;67530;52.282;5.972;2023-04-25T01:09:58;51.3;48.4;52.5;;
78273;Laerm;67530;52.282;5.972;2023-04-25T01:10:19;51.2;48.9;52.4;;
78273;Laerm;67530;52.282;5.972;2023-04-25T01:10:39;51.1;47.9;52.3;;
78273;Laerm;67530;52.282;5.972;2023-04-25T01:10:59;50.7;46.9;52.1;;
78273;Laerm;67530;52.282;5.972;2023-04-25T01:11:19;50.5;47.5;52.2;;
78273;Laerm;67530;52.282;5.972;2023-04-25T01:11:39;50.6;46.9;52.1;;
78273;Laerm;67530;52.282;5.972;2023-04-25T01:11:59;50.5;47.2;51.9;;
78273;Laerm;67530;52.282;5.972;2023-04-25T01:12:19;50.6;46.9;52;;
78273;Laerm;67530;52.282;5.972;2023-04-25T01:12:39;50.5;46.8;52.1;;
78273;Laerm;67530;52.282;5.972;2023-04-25T01:12:59;50.5;46.8;52;;
78273;Laerm;67530;52.282;5.972;2023-04-25T01:13:19;50.7;47.2;51.7;;
78273;Laerm;67530;52.282;5.972;2023-04-25T01:13:39;50.6;46.2;51.9;;
78273;Laerm;67530;52.282;5.972;2023-04-25T01:13:59;50.6;46.5;52;;
78273;Laerm;67530;52.282;5.972;2023-04-25T01:14:19;50.6;46.8;51.9;;
78273;Laerm;67530;52.282;5.972;2023-04-25T01:14:39;50.5;47.3;51.9;;
78273;Laerm;67530;52.282;5.972;2023-04-25T01:14:59;50.6;47.3;51.9;;
78273;Laerm;67530;52.282;5.972;2023-04-25T01:15:19;50.5;46.5;51.6;;
78273;Laerm;67530;52.282;5.972;2023-04-25T01:15:39;50.5;47.6;51.7;;
78273;Laerm;67530;52.282;5.972;2023-04-25T01:16:00;50.6;47.9;51.8;;
78273;Laerm;67530;52.282;5.972;2023-04-25T01:16:20;50.5;47.5;51.6;;
78273;Laerm;67530;52.282;5.972;2023-04-25T01:16:40;50.5;47.4;51.6;;
78273;Laerm;67530;52.282;5.972;2023-04-25T01:17:00;50.6;47.8;51.8;;
78273;Laerm;67530;52.282;5.972;2023-04-25T01:17:20;50.6;47.3;51.7;;
78273;Laerm;67530;52.282;5.972;2023-04-25T01:17:40;50.5;46.7;51.9;;
78273;Laerm;67530;52.282;5.972;2023-04-25T01:18:00;50.6;47.3;51.7;;
78273;Laerm;67530;52.282;5.972;2023-04-25T01:18:20;50.5;46.9;51.9;;
78273;Laerm;67530;52.282;5.972;2023-04-25T01:18:40;50.7;46.5;51.7;;
78273;Laerm;67530;52.282;5.972;2023-04-25T01:19:00;50.5;47.6;51.9;;
78273;Laerm;67530;52.282;5.972;2023-04-25T01:19:20;50.5;47.5;51.7;;
78273;Laerm;67530;52.282;5.972;2023-04-25T01:19:40;50.5;47.8;51.9;;
78273;Laerm;67530;52.282;5.972;2023-04-25T01:20:01;50.5;47.5;51.9;;
78273;Laerm;67530;52.282;5.972;2023-04-25T01:20:20;50.6;47.9;51.6;;
78273;Laerm;67530;52.282;5.972;2023-04-25T01:20:40;50.5;47.7;51.7;;
78273;Laerm;67530;52.282;5.972;2023-04-25T01:21:03;50.5;48;51.4;;
78273;Laerm;67530;52.282;5.972;2023-04-25T01:21:20;50.4;47.2;51.7;;
78273;Laerm;67530;52.282;5.972;2023-04-25T01:21:40;50.4;48.2;51.5;;
78273;Laerm;67530;52.282;5.972;2023-04-25T01:22:01;50.2;47.2;51.6;;
78273;Laerm;67530;52.282;5.972;2023-04-25T01:22:21;50.2;46.9;51.4;;
78273;Laerm;67530;52.282;5.972;2023-04-25T01:22:41;50.3;47.8;51.4;;
78273;Laerm;67530;52.282;5.972;2023-04-25T01:23:01;50.2;48.2;51.2;;
78273;Laerm;67530;52.282;5.972;2023-04-25T01:23:21;50.2;47.5;51.3;;
78273;Laerm;67530;52.282;5.972;2023-04-25T01:23:41;50.2;48.4;51.1;;
78273;Laerm;67530;52.282;5.972;2023-04-25T01:24:01;50.1;46.8;51.1;;
78273;Laerm;67530;52.282;5.972;2023-04-25T01:24:21;50.2;47.6;51;;
78273;Laerm;67530;52.282;5.972;2023-04-25T01:24:41;50;46.8;51.2;;
78273;Laerm;67530;52.282;5.972;2023-04-25T01:25:01;50;47.1;51;;
78273;Laerm;67530;52.282;5.972;2023-04-25T01:25:22;50;47.1;51;;
78273;Laerm;67530;52.282;5.972;2023-04-25T01:25:41;49.9;46.5;51;;
78273;Laerm;67530;52.282;5.972;2023-04-25T01:26:01;50;47.1;50.9;;
78273;Laerm;67530;52.282;5.972;2023-04-25T01:26:21;50;47.3;50.9;;
78273;Laerm;67530;52.282;5.972;2023-04-25T01:26:42;50;46.6;51;;
78273;Laerm;67530;52.282;5.972;2023-04-25T01:27:02;49.7;47.1;51.1;;
78273;Laerm;67530;52.282;5.972;2023-04-25T01:27:22;49.9;47.7;51;;
78273;Laerm;67530;52.282;5.972;2023-04-25T01:27:42;49.9;47;50.9;;
78273;Laerm;67530;52.282;5.972;2023-04-25T01:28:02;49.9;46.9;51;;
78273;Laerm;67530;52.282;5.972;2023-04-25T01:28:22;49.8;46;50.8;;
78273;Laerm;67530;52.282;5.972;2023-04-25T01:28:42;49.8;47.5;50.7;;
78273;Laerm;67530;52.282;5.972;2023-04-25T01:29:03;49.8;46.3;50.9;;
78273;Laerm;67530;52.282;5.972;2023-04-25T01:29:22;49.7;47.4;50.7;;
78273;Laerm;67530;52.282;5.972;2023-04-25T01:29:42;49.8;47.7;51;;
78273;Laerm;67530;52.282;5.972;2023-04-25T01:30:02;49.8;47.5;50.9;;
78273;Laerm;67530;52.282;5.972;2023-04-25T01:30:22;49.9;47.1;51;;
78273;Laerm;67530;52.282;5.972;2023-04-25T01:30:42;49.9;47.3;50.9;;
78273;Laerm;67530;52.282;5.972;2023-04-25T01:31:02;49.9;47.3;50.7;;
78273;Laerm;67530;52.282;5.972;2023-04-25T01:31:22;49.8;46.6;51.1;;
78273;Laerm;67530;52.282;5.972;2023-04-25T01:31:43;49.9;47.6;51.1;;
78273;Laerm;67530;52.282;5.972;2023-04-25T01:32:03;50.1;47.3;51.1;;
78273;Laerm;67530;52.282;5.972;2023-04-25T01:32:22;50;47.9;50.9;;
78273;Laerm;67530;52.282;5.972;2023-04-25T01:32:42;50.1;47.8;51.1;;
78273;Laerm;67530;52.282;5.972;2023-04-25T01:33:03;50.1;46.9;51.2;;
78273;Laerm;67530;52.282;5.972;2023-04-25T01:33:23;49.8;46.4;51.2;;
78273;Laerm;67530;52.282;5.972;2023-04-25T01:33:43;50.1;46.7;51.5;;
78273;Laerm;67530;52.282;5.972;2023-04-25T01:34:03;49.7;46.5;50.9;;
78273;Laerm;67530;52.282;5.972;2023-04-25T01:34:23;50;47.4;51.3;;
78273;Laerm;67530;52.282;5.972;2023-04-25T01:34:43;50.2;47.2;51.4;;
78273;Laerm;67530;52.282;5.972;2023-04-25T01:35:03;50.3;46.5;51.5;;
78273;Laerm;67530;52.282;5.972;2023-04-25T01:35:23;50.5;48.2;51.5;;
78273;Laerm;67530;52.282;5.972;2023-04-25T01:35:43;50.5;48;51.4;;
78273;Laerm;67530;52.282;5.972;2023-04-25T01:36:03;50.4;47.6;51.4;;
78273;Laerm;67530;52.282;5.972;2023-04-25T01:36:23;50.4;46.9;51.7;;
78273;Laerm;67530;52.282;5.972;2023-04-25T01:36:43;50.7;48.4;52.4;;
78273;Laerm;67530;52.282;5.972;2023-04-25T01:37:03;50.7;47.4;52.2;;
78273;Laerm;67530;52.282;5.972;2023-04-25T01:37:23;50.8;47.8;52.3;;
78273;Laerm;67530;52.282;5.972;2023-04-25T01:37:44;50.8;47.9;52;;
78273;Laerm;67530;52.282;5.972;2023-04-25T01:38:03;50.7;47.5;51.9;;
78273;Laerm;67530;52.282;5.972;2023-04-25T01:38:24;50.9;47.8;52.1;;
78273;Laerm;67530;52.282;5.972;2023-04-25T01:38:44;50.3;46.6;52.2;;
78273;Laerm;67530;52.282;5.972;2023-04-25T01:39:04;50.8;47.5;52.3;;
78273;Laerm;67530;52.282;5.972;2023-04-25T01:39:24;51.1;47.9;52.6;;
78273;Laerm;67530;52.282;5.972;2023-04-25T01:39:44;50.9;47.1;52.2;;
78273;Laerm;67530;52.282;5.972;2023-04-25T01:40:04;51.1;48.6;52.3;;
78273;Laerm;67530;52.282;5.972;2023-04-25T01:40:24;51.1;48;52.9;;
78273;Laerm;67530;52.282;5.972;2023-04-25T01:40:44;51.3;48.6;52.8;;
78273;Laerm;67530;52.282;5.972;2023-04-25T01:41:04;51.4;48.2;52.7;;
78273;Laerm;67530;52.282;5.972;2023-04-25T01:41:24;51.5;48.6;52.7;;
78273;Laerm;67530;52.282;5.972;2023-04-25T01:41:44;51.5;48.4;52.8;;
78273;Laerm;67530;52.282;5.972;2023-04-25T01:42:04;51.7;49.2;52.8;;
78273;Laerm;67530;52.282;5.972;2023-04-25T01:42:24;51.7;48.8;52.9;;
78273;Laerm;67530;52.282;5.972;2023-04-25T01:42:44;51.6;47.2;53;;
78273;Laerm;67530;52.282;5.972;2023-04-25T01:43:04;51.8;48;52.9;;
78273;Laerm;67530;52.282;5.972;2023-04-25T01:43:24;51.9;48.6;52.9;;
78273;Laerm;67530;52.282;5.972;2023-04-25T01:43:45;51.9;48.7;53;;
78273;Laerm;67530;52.282;5.972;2023-04-25T01:44:05;52;48.2;53.2;;
78273;Laerm;67530;52.282;5.972;2023-04-25T01:44:25;52;49.5;53;;
78273;Laerm;67530;52.282;5.972;2023-04-25T01:44:45;52;48.6;53.2;;
78273;Laerm;67530;52.282;5.972;2023-04-25T01:45:05;52.1;49;53.3;;
78273;Laerm;67530;52.282;5.972;2023-04-25T01:45:25;52.2;49.9;53.2;;
78273;Laerm;67530;52.282;5.972;2023-04-25T01:45:45;52.2;48.5;53.2;;
78273;Laerm;67530;52.282;5.972;2023-04-25T01:46:05;52.1;49.4;53.2;;
78273;Laerm;67530;52.282;5.972;2023-04-25T01:46:26;52.2;49.8;53.4;;
78273;Laerm;67530;52.282;5.972;2023-04-25T01:46:45;52.1;48.8;53.4;;
78273;Laerm;67530;52.282;5.972;2023-04-25T01:47:05;52;49.6;53.2;;
78273;Laerm;67530;52.282;5.972;2023-04-25T01:47:25;52.1;49.4;53.2;;
78273;Laerm;67530;52.282;5.972;2023-04-25T01:47:45;52.1;48.7;53.2;;
78273;Laerm;67530;52.282;5.972;2023-04-25T01:48:05;52.1;49.2;53.3;;
78273;Laerm;67530;52.282;5.972;2023-04-25T01:48:25;52;49.1;53.1;;
78273;Laerm;67530;52.282;5.972;2023-04-25T01:48:45;51.8;48.1;53.6;;
78273;Laerm;67530;52.282;5.972;2023-04-25T01:49:06;52.1;49.4;53.3;;
78273;Laerm;67530;52.282;5.972;2023-04-25T01:49:26;52.2;49.4;53.4;;
78273;Laerm;67530;52.282;5.972;2023-04-25T01:49:46;52.2;48.7;53.3;;
78273;Laerm;67530;52.282;5.972;2023-04-25T01:50:06;52.2;49.7;53.4;;
78273;Laerm;67530;52.282;5.972;2023-04-25T01:50:26;52.3;49.6;53.3;;
78273;Laerm;67530;52.282;5.972;2023-04-25T01:50:46;52.4;50.6;53.6;;
78273;Laerm;67530;52.282;5.972;2023-04-25T01:51:06;52.5;50.5;53.7;;
78273;Laerm;67530;52.282;5.972;2023-04-25T01:51:26;52.4;50;53.5;;
78273;Laerm;67530;52.282;5.972;2023-04-25T01:51:46;52.6;49.3;53.9;;
78273;Laerm;67530;52.282;5.972;2023-04-25T01:52:06;52.5;50;53.7;;
78273;Laerm;67530;52.282;5.972;2023-04-25T01:52:26;52.4;49.2;53.7;;
78273;Laerm;67530;52.282;5.972;2023-04-25T01:52:46;52.4;49.8;53.7;;
78273;Laerm;67530;52.282;5.972;2023-04-25T01:53:06;52.5;49.3;53.7;;
78273;Laerm;67530;52.282;5.972;2023-04-25T01:53:26;52.4;48.8;53.9;;
78273;Laerm;67530;52.282;5.972;2023-04-25T01:53:46;52.3;49.5;53.6;;
78273;Laerm;67530;52.282;5.972;2023-04-25T01:54:06;52.2;50;53.2;;
78273;Laerm;67530;52.282;5.972;2023-04-25T01:54:26;52.3;50;53.4;;
78273;Laerm;67530;52.282;5.972;2023-04-25T01:54:46;52.2;48.7;53.7;;
78273;Laerm;67530;52.282;5.972;2023-04-25T01:55:07;52.3;49.1;53.5;;
78273;Laerm;67530;52.282;5.972;2023-04-25T01:55:27;52.1;49.1;53.4;;
78273;Laerm;67530;52.282;5.972;2023-04-25T01:55:47;52.1;49.7;53.3;;
78273;Laerm;67530;52.282;5.972;2023-04-25T01:56:07;52.1;48.9;53.4;;
78273;Laerm;67530;52.282;5.972;2023-04-25T01:56:29;52;48.9;53.3;;
78273;Laerm;67530;52.282;5.972;2023-04-25T01:56:49;52.1;49.4;53.5;;
78273;Laerm;67530;52.282;5.972;2023-04-25T01:57:07;51.9;48.8;53.5;;
78273;Laerm;67530;52.282;5.972;2023-04-25T01:57:27;51.9;48;53.6;;
78273;Laerm;67530;52.282;5.972;2023-04-25T01:57:47;52.2;49.7;53.4;;
78273;Laerm;67530;52.282;5.972;2023-04-25T01:58:07;52.4;49.8;53.6;;
78273;Laerm;67530;52.282;5.972;2023-04-25T01:58:27;52.3;49.5;53.6;;
78273;Laerm;67530;52.282;5.972;2023-04-25T01:58:47;52.4;49.4;53.5;;